NCAR-RAP Real-Time Weather Data

Output produced by METARs form (17 September 2019  17:11 UTC)
found at http://weather.rap.ucar.edu/surface/
 
KMDT 171656Z 09005KT 10SM FEW120 FEW250 25/11 A3015 RMK AO2 SLP207 T02500106
KMDT 171556Z VRB05KT 10SM FEW120 FEW250 23/11 A3016 RMK AO2 SLP212 T02330111
KMDT 171456Z 09008KT 10SM FEW030 FEW090 22/11 A3016 RMK AO2 SLP214 T02220111 51012
KMDT 171356Z 05007KT 10SM SCT030 SCT090 20/11 A3016 RMK AO2 SLP212 T02000111
KMDT 171256Z VRB04KT 10SM SCT020 BKN045 19/11 A3014 RMK AO2 SLP206 T01890111
KMDT 171156Z 00000KT 10SM BKN045 18/12 A3013 RMK AO2 SLP202 T01830122 10217 20178 53021
KMDT 171056Z 00000KT 10SM BKN045 18/12 A3010 RMK AO2 SLP193 T01830117
KMDT 170956Z VRB03KT 10SM BKN035 19/13 A3008 RMK AO2 SLP186 T01940133
KMDT 170856Z VRB03KT 10SM BKN033 BKN050 20/14 A3007 RMK AO2 SLP180 T02000144 53004
KMDT 170756Z 00000KT 10SM BKN030 OVC110 21/16 A3006 RMK AO2 SLP178 T02110156
KMDT 170656Z 00000KT 10SM BKN110 21/16 A3006 RMK AO2 SLP177 T02060161
KMDT 170556Z 32003KT 10SM FEW080 BKN100 21/17 A3006 RMK AO2 SLP176 T02110167 10244 20211 51007
KMDT 170456Z 00000KT 10SM FEW085 BKN110 22/17 A3005 RMK AO2 SLP175 T02170167 402780189
KMDT 170356Z 06005KT 10SM OVC100 23/17 A3005 RMK AO2 SLP172 T02280167
KMDT 170256Z VRB05KT 10SM FEW075 BKN100 23/17 A3004 RMK AO2 SLP170 T02330172 53012
KMDT 170056Z 00000KT 10SM FEW045 SCT065 BKN085 24/17 A3001 RMK AO2 SLP161 T02390172
KMDT 162356Z 00000KT 10SM FEW047 BKN060 BKN110 24/19 A3000 RMK AO2 SLP157 T02440194 10278 20239 51007
KMDT 162256Z 04004KT 10SM FEW049 BKN080 BKN100 26/17 A2999 RMK AO2 SLP156 T02560167
KMDT 162156Z 05005KT 10SM SCT049 BKN110 27/17 A2999 RMK AO2 SLP153 T02670167
KMDT 162056Z 00000KT 10SM BKN048 BKN110 27/18 A2998 RMK AO2 SLP150 T02720183 56013
KMDT 161956Z 00000KT 10SM SCT090 BKN120 BKN250 28/17 A2999 RMK AO2 SLP153 T02780167